Time;durP1;ratioP1;P1;durP2;ratioP2;P2;SDS_P1;SDS_P2;PMS_P1;PMS_P2;Temp;Humidity;BMP_temperature;BMP_pressure;BME280_temperature;BME280_humidity;BME280_pressure;Samples;Min_cycle;Max_cycle;Signal;HPM_P1;HPM_P2
2021/04/16 00:01:18;;;;;;;19.92;12.58;;;;;;;8.16;86.54;99567.69;1732435;79;21182;-76
2021/04/16 00:03:48;;;;;;;16.07;11.88;;;;;;;8.16;86.58;99567.23;1752446;81;22371;-77
2021/04/16 00:06:17;;;;;;;15.55;11.03;;;;;;;8.14;86.47;99566.88;1752427;81;21167;-76
2021/04/16 00:08:45;;;;;;;15.60;11.25;;;;;;;8.13;86.47;99563.41;1749715;81;21179;-76
2021/04/16 00:11:18;;;;;;;12.18;9.00;;;;;;;8.15;86.50;99569.46;1722546;83;21135;-75
2021/04/16 00:13:49;;;;;;;12.55;9.05;;;;;;;8.13;86.44;99563.41;1722501;83;21656;-76
2021/04/16 00:16:20;;;;;;;16.77;11.90;;;;;;;8.13;86.80;99560.79;1722544;83;21268;-75
2021/04/16 00:18:50;;;;;;;15.08;9.15;;;;;;;8.15;87.14;99565.53;1722386;83;21642;-76
2021/04/16 00:21:18;;;;;;;16.93;11.53;;;;;;;8.15;87.07;99568.16;1722395;83;21203;-75
2021/04/16 00:23:47;;;;;;;15.60;11.35;;;;;;;8.15;87.19;99565.53;1722146;83;21244;-76
2021/04/16 00:26:16;;;;;;;15.75;11.75;;;;;;;8.16;87.15;99565.91;1742317;81;21217;-76
2021/04/16 00:28:45;;;;;;;15.48;11.85;;;;;;;8.18;87.26;99571.97;1752436;81;21842;-76
2021/04/16 00:31:18;;;;;;;16.75;11.45;;;;;;;8.22;87.42;99570.56;1749890;81;21218;-76
2021/04/16 00:33:46;;;;;;;17.30;11.73;;;;;;;8.21;87.26;99569.69;1722466;81;21203;-75
2021/04/16 00:36:14;;;;;;;15.85;11.45;;;;;;;8.22;87.54;99570.56;1722371;81;21178;-76
2021/04/16 00:38:42;;;;;;;13.70;9.78;;;;;;;8.24;87.70;99566.13;1722359;83;21162;-75
2021/04/16 00:41:14;;;;;;;14.07;11.48;;;;;;;8.26;87.61;99568.20;1722331;83;21230;-76
2021/04/16 00:43:43;;;;;;;16.40;10.95;;;;;;;8.27;87.78;99563.38;1722188;83;21207;-76
2021/04/16 00:46:20;;;;;;;14.60;10.43;;;;;;;8.27;87.85;99564.69;1722372;83;21201;-75
2021/04/16 00:48:56;;;;;;;13.15;9.83;;;;;;;8.29;87.67;99572.89;1722430;83;21187;-74
2021/04/16 00:51:37;;;;;;;14.53;10.68;;;;;;;8.29;87.73;99566.80;1720606;83;21182;-74
2021/04/16 00:54:08;;;;;;;19.48;13.00;;;;;;;8.30;87.92;99571.97;1722488;83;21460;-75
2021/04/16 00:56:36;;;;;;;19.75;12.35;;;;;;;8.30;88.08;99568.03;1722444;83;21664;-77
2021/04/16 00:59:04;;;;;;;15.85;11.63;;;;;;;8.33;88.23;99573.66;1722521;83;21211;-78
2021/04/16 01:01:32;;;;;;;16.95;11.30;;;;;;;8.33;88.21;99571.03;1719389;82;21155;-77
2021/04/16 01:04:03;;;;;;;16.55;11.75;;;;;;;8.33;88.40;99565.32;1717446;83;21175;-76
2021/04/16 01:06:32;;;;;;;19.70;13.08;;;;;;;8.36;88.60;99570.45;1717215;83;21285;-76
2021/04/16 01:09:01;;;;;;;20.52;13.38;;;;;;;8.36;88.34;99568.28;1717091;83;21154;-76
2021/04/16 01:11:31;;;;;;;17.87;11.83;;;;;;;8.33;88.30;99565.78;1715704;83;21159;-75
2021/04/16 01:13:59;;;;;;;16.42;11.38;;;;;;;8.36;88.57;99575.69;1688310;84;21214;-76
2021/04/16 01:16:30;;;;;;;17.45;11.45;;;;;;;8.35;88.53;99567.87;1688469;84;21199;-75
2021/04/16 01:18:57;;;;;;;18.67;11.40;;;;;;;8.33;88.40;99571.03;1688494;84;21199;-76
2021/04/16 01:21:37;;;;;;;15.10;9.98;;;;;;;8.32;88.62;99567.98;1688331;84;21210;-76
2021/04/16 01:24:22;;;;;;;19.05;13.00;;;;;;;8.35;88.98;99567.87;1688466;84;21198;-79
2021/04/16 01:26:50;;;;;;;18.67;11.93;;;;;;;8.37;89.06;99569.98;1687734;84;21175;-78
2021/04/16 01:29:18;;;;;;;18.12;12.58;;;;;;;8.36;88.89;99565.66;1687114;85;21187;-74
2021/04/16 01:31:51;;;;;;;21.35;14.03;;;;;;;8.37;88.99;99567.36;1697341;83;21822;-77
2021/04/16 01:34:23;;;;;;;18.62;13.45;;;;;;;8.37;89.20;99567.36;1717330;83;21175;-78
2021/04/16 01:36:54;;;;;;;19.25;13.48;;;;;;;8.38;89.30;99569.09;1717168;83;21159;-78
2021/04/16 01:39:26;;;;;;;20.15;12.90;;;;;;;8.37;89.40;99563.42;1717296;83;21758;-76
2021/04/16 01:41:55;;;;;;;16.60;11.65;;;;;;;8.37;89.41;99560.80;1717360;83;21191;-76
2021/04/16 01:44:26;;;;;;;19.15;11.90;;;;;;;8.38;89.33;99562.06;1717327;83;21671;-77
2021/04/16 01:46:59;;;;;;;18.23;12.47;;;;;;;8.38;89.14;99562.53;1717262;83;21634;-77
2021/04/16 01:49:32;;;;;;;17.40;11.63;;;;;;;8.35;88.99;99561.31;1717295;83;21182;-78
2021/04/16 01:52:03;;;;;;;16.87;12.15;;;;;;;8.30;89.02;99560.63;1717163;83;21202;-77
2021/04/16 01:54:34;;;;;;;15.40;10.30;;;;;;;8.32;89.25;99556.19;1717331;83;21138;-78
2021/04/16 01:57:07;;;;;;;16.15;11.50;;;;;;;8.34;89.35;99559.61;1717178;83;21679;-77
2021/04/16 01:59:37;;;;;;;16.60;11.75;;;;;;;8.34;89.48;99558.30;1717154;83;21183;-76
2021/04/16 02:02:08;;;;;;;17.92;11.53;;;;;;;8.30;89.34;99552.76;1717514;82;21661;-77
2021/04/16 02:04:36;;;;;;;19.07;11.70;;;;;;;8.31;89.49;99554.48;1717209;83;21480;-76
2021/04/16 02:07:07;;;;;;;16.12;11.55;;;;;;;8.32;89.76;99552.25;1716968;83;21226;-76
2021/04/16 02:09:37;;;;;;;14.10;10.88;;;;;;;8.33;89.72;99552.66;1717195;83;21375;-75
2021/04/16 02:12:07;;;;;;;17.27;11.03;;;;;;;8.33;89.55;99550.05;1717112;83;21191;-76
2021/04/16 02:14:36;;;;;;;12.47;10.05;;;;;;;8.31;89.39;99550.55;1717031;83;21693;-74
2021/04/16 02:17:11;;;;;;;13.90;9.08;;;;;;;8.31;89.51;99555.80;1717074;83;21206;-75
2021/04/16 02:19:41;;;;;;;14.40;10.08;;;;;;;8.29;89.55;99553.69;1716784;83;21204;-75
2021/04/16 02:22:13;;;;;;;14.93;9.23;;;;;;;8.26;89.58;99551.16;1716781;83;21813;-76
2021/04/16 02:24:41;;;;;;;11.05;8.50;;;;;;;8.25;89.58;99556.02;1716995;83;21171;-74
2021/04/16 02:27:09;;;;;;;12.15;9.18;;;;;;;8.27;89.64;99554.19;1698094;83;21493;-73
2021/04/16 02:29:39;;;;;;;12.68;8.38;;;;;;;8.25;89.60;99554.70;1688237;84;21186;-73
2021/04/16 02:32:08;;;;;;;13.78;9.73;;;;;;;8.23;89.74;99553.90;1688348;83;21220;-73
2021/04/16 02:34:36;;;;;;;12.30;9.68;;;;;;;8.18;89.74;99548.36;1688174;84;21205;-73
2021/04/16 02:37:09;;;;;;;15.10;9.68;;;;;;;8.18;89.79;99557.54;1688195;84;21229;-72
2021/04/16 02:39:37;;;;;;;12.35;9.65;;;;;;;8.18;89.92;99554.91;1688370;84;21268;-74
2021/04/16 02:42:06;;;;;;;14.75;9.78;;;;;;;8.18;89.90;99558.00;1688357;84;21669;-74
2021/04/16 02:44:36;;;;;;;13.13;8.95;;;;;;;8.17;89.95;99559.78;1688352;84;21206;-72
2021/04/16 02:47:05;;;;;;;13.08;9.18;;;;;;;8.13;89.80;99551.61;1688582;84;21775;-74
2021/04/16 02:49:35;;;;;;;13.47;9.60;;;;;;;8.14;89.72;99555.97;1688812;84;21642;-73
2021/04/16 02:52:03;;;;;;;10.95;7.97;;;;;;;8.11;89.71;99554.74;1688457;84;21155;-73
2021/04/16 02:54:31;;;;;;;12.98;8.95;;;;;;;8.10;89.93;99556.98;1688511;84;21147;-73
2021/04/16 02:57:01;;;;;;;13.53;9.58;;;;;;;8.10;89.93;99556.98;1688374;84;21178;-72
2021/04/16 02:59:30;;;;;;;9.73;7.40;;;;;;;8.10;89.94;99555.66;1688644;84;21214;-73
2021/04/16 03:01:58;;;;;;;11.40;7.92;;;;;;;8.09;89.97;99563.11;1709655;82;21203;-72
2021/04/16 03:04:27;;;;;;;12.07;8.23;;;;;;;8.10;90.00;99560.91;1714840;83;21170;-73
2021/04/16 03:06:55;;;;;;;10.85;7.62;;;;;;;8.07;89.99;99551.82;1714713;83;21521;-73
2021/04/16 03:09:23;;;;;;;11.20;7.45;;;;;;;8.06;90.05;99556.68;1714799;83;21187;-74
2021/04/16 03:11:51;;;;;;;11.43;8.23;;;;;;;8.04;90.10;99559.81;1714742;83;22124;-74
2021/04/16 03:14:19;;;;;;;10.95;8.10;;;;;;;8.02;90.30;99559.00;1714559;83;21211;-74
2021/04/16 03:16:49;;;;;;;12.23;7.37;;;;;;;8.02;90.30;99559.00;1714625;83;21215;-75
2021/04/16 03:19:19;;;;;;;11.35;7.72;;;;;;;8.00;90.26;99554.27;1714652;83;21183;-75
2021/04/16 03:21:47;;;;;;;10.15;7.85;;;;;;;7.99;90.25;99551.26;1714571;83;21586;-72
2021/04/16 03:24:16;;;;;;;9.23;7.47;;;;;;;7.99;90.28;99555.19;1714526;83;21314;-74
2021/04/16 03:26:45;;;;;;;10.38;7.35;;;;;;;8.00;90.35;99555.58;1700445;83;21207;-74
2021/04/16 03:29:12;;;;;;;9.05;6.78;;;;;;;7.99;90.23;99559.13;1685867;83;21206;-73
2021/04/16 03:31:40;;;;;;;11.30;6.95;;;;;;;7.97;90.11;99554.39;1685920;85;21204;-74
2021/04/16 03:34:09;;;;;;;7.78;6.50;;;;;;;7.94;90.24;99558.44;1685715;85;21498;-74
2021/04/16 03:36:38;;;;;;;6.92;6.03;;;;;;;7.92;90.25;99555.02;1685748;85;21616;-72
2021/04/16 03:39:08;;;;;;;7.97;6.37;;;;;;;7.93;90.40;99559.33;1685640;85;21479;-74
2021/04/16 03:41:36;;;;;;;12.93;6.67;;;;;;;7.94;90.41;99556.66;1685515;85;21278;-75
2021/04/16 03:44:04;;;;;;;9.15;6.33;;;;;;;7.91;90.43;99554.59;1685740;85;21192;-74
2021/04/16 03:46:32;;;;;;;8.23;6.50;;;;;;;7.92;90.34;99558.94;1685984;85;21144;-74
2021/04/16 03:49:02;;;;;;;8.75;6.65;;;;;;;7.92;90.38;99562.88;1685752;85;21784;-76
2021/04/16 03:51:30;;;;;;;9.70;6.60;;;;;;;7.80;90.41;99545.81;1685734;85;21172;-75
2021/04/16 03:54:00;;;;;;;9.30;6.78;;;;;;;7.91;90.53;99563.77;1685672;85;21631;-74
2021/04/16 03:56:28;;;;;;;8.38;6.05;;;;;;;7.90;90.48;99566.00;1685895;85;21186;-75
2021/04/16 03:58:56;;;;;;;9.68;6.90;;;;;;;7.90;90.62;99564.69;1685996;85;21200;-78
2021/04/16 04:01:24;;;;;;;6.17;5.28;;;;;;;7.90;90.54;99564.69;1706140;82;22528;-78
2021/04/16 04:03:51;;;;;;;8.63;6.20;;;;;;;7.88;90.67;99562.11;1718360;82;21211;-79
2021/04/16 04:06:20;;;;;;;8.23;6.40;;;;;;;7.89;90.61;99568.20;1726593;82;21266;-77
2021/04/16 04:08:49;;;;;;;7.58;5.70;;;;;;;7.90;90.86;99568.16;1716520;82;21167;-78
2021/04/16 04:11:18;;;;;;;8.30;5.92;;;;;;;7.92;90.75;99566.81;1720347;82;21216;-77
2021/04/16 04:13:47;;;;;;;9.28;6.15;;;;;;;7.91;90.67;99570.33;1646160;86;22257;-78
2021/04/16 04:16:17;;;;;;;8.60;6.03;;;;;;;7.93;90.76;99575.06;1705228;82;21231;-76
2021/04/16 04:18:45;;;;;;;7.47;6.05;;;;;;;7.90;90.71;99568.63;1716244;82;21199;-78
2021/04/16 04:21:13;;;;;;;9.83;5.60;;;;;;;7.91;90.66;99565.96;1713675;82;21671;-77
2021/04/16 04:23:42;;;;;;;9.83;6.50;;;;;;;7.94;90.71;99575.48;1716398;82;21155;-77
2021/04/16 04:26:10;;;;;;;8.75;6.42;;;;;;;7.94;90.70;99573.70;1703711;82;21953;-77
2021/04/16 04:28:38;;;;;;;8.43;6.20;;;;;;;7.94;90.63;99572.86;1703709;82;21195;-77
2021/04/16 04:31:08;;;;;;;9.43;6.35;;;;;;;7.94;90.66;99576.80;1729046;82;21168;-77
2021/04/16 04:33:36;;;;;;;9.65;6.62;;;;;;;7.94;90.71;99574.17;1730213;82;21340;-76
2021/04/16 04:36:05;;;;;;;10.32;7.33;;;;;;;7.95;90.71;99577.17;1730524;82;21591;-78
2021/04/16 04:38:33;;;;;;;11.80;6.83;;;;;;;7.94;90.82;99577.64;1712051;82;21219;-78
2021/04/16 04:41:05;;;;;;;9.33;6.97;;;;;;;7.96;90.76;99580.22;1730892;82;21188;-82
2021/04/16 04:43:33;;;;;;;9.43;7.33;;;;;;;7.96;90.64;99582.84;1731081;82;21140;-84
2021/04/16 04:46:02;;;;;;;9.70;6.92;;;;;;;7.98;90.60;99582.30;1731194;82;21195;-85
2021/04/16 04:48:30;;;;;;;10.63;7.37;;;;;;;7.99;90.59;99580.10;1731267;82;21164;-85
2021/04/16 04:50:58;;;;;;;9.63;7.65;;;;;;;7.99;90.52;99583.57;1730256;82;21808;-86
2021/04/16 04:53:26;;;;;;;10.00;6.53;;;;;;;7.98;90.60;99579.25;1717284;82;21206;-84
2021/04/16 04:55:55;;;;;;;12.63;7.80;;;;;;;7.98;90.62;99577.94;1718994;82;21203;-86
2021/04/16 04:58:23;;;;;;;6.55;5.08;;;;;;;8.00;90.65;99573.94;1642440;86;21274;-87
2021/04/16 05:00:51;;;;;;;9.38;6.83;;;;;;;8.03;90.64;99577.78;1714564;82;21136;-86
2021/04/16 05:03:19;;;;;;;7.70;5.20;;;;;;;8.05;90.48;99574.65;1702916;82;21825;-86
2021/04/16 05:05:47;;;;;;;8.00;4.97;;;;;;;8.05;90.52;99577.27;1700878;83;21691;-86
2021/04/16 05:08:15;;;;;;;16.02;7.78;;;;;;;8.05;90.64;99574.65;1703082;83;21202;-85
2021/04/16 05:10:43;;;;;;;13.22;8.13;;;;;;;8.08;90.78;99574.53;1691261;83;21154;-84
2021/04/16 05:13:11;;;;;;;11.25;7.72;;;;;;;8.11;90.65;99579.66;1649678;86;21202;-84
2021/04/16 05:15:40;;;;;;;14.23;8.75;;;;;;;8.12;90.54;99576.57;1669519;85;21203;-85
2021/04/16 05:18:08;;;;;;;13.25;8.80;;;;;;;8.11;90.21;99570.48;1686548;83;21210;-84
2021/04/16 05:20:38;;;;;;;17.98;10.18;;;;;;;8.08;90.00;99571.91;1653218;86;21190;-84
2021/04/16 05:23:07;;;;;;;11.08;8.50;;;;;;;8.07;90.12;99576.73;1685604;84;21184;-87
2021/04/16 05:25:35;;;;;;;14.15;8.35;;;;;;;8.07;90.08;99569.33;1695160;83;21147;-85
2021/04/16 05:28:04;;;;;;;12.23;8.83;;;;;;;8.07;90.17;99573.27;1703429;83;21719;-87
2021/04/16 05:30:32;;;;;;;12.05;8.38;;;;;;;8.09;90.19;99574.91;1680162;85;21174;-86
2021/04/16 05:33:01;;;;;;;13.72;8.70;;;;;;;8.11;90.26;99573.56;1680707;85;21322;-86
2021/04/16 05:35:31;;;;;;;8.13;5.50;;;;;;;8.12;90.26;99568.27;1697139;84;21368;-88
2021/04/16 05:37:58;;;;;;;8.50;6.22;;;;;;;8.11;90.11;99569.17;1695465;84;21618;-86
2021/04/16 05:40:27;;;;;;;10.15;8.00;;;;;;;8.13;90.20;99577.84;1671972;84;21216;-86
2021/04/16 05:42:55;;;;;;;10.30;7.40;;;;;;;8.15;90.38;99573.39;1702648;83;21227;-85
2021/04/16 05:45:23;;;;;;;10.82;7.75;;;;;;;8.18;90.40;99572.43;1703392;83;21575;-86
2021/04/16 05:47:51;;;;;;;12.88;7.83;;;;;;;8.17;90.34;99567.64;1712455;83;21218;-83
2021/04/16 05:50:19;;;;;;;10.68;7.62;;;;;;;8.18;90.49;99575.05;1711170;83;21127;-84
2021/04/16 05:52:47;;;;;;;14.73;8.93;;;;;;;8.16;90.56;99577.72;1713476;83;21337;-85
2021/04/16 05:55:15;;;;;;;12.63;8.15;;;;;;;8.18;90.61;99571.97;1704224;83;21199;-85
2021/04/16 05:57:45;;;;;;;12.37;8.10;;;;;;;8.23;90.91;99584.06;1709103;83;21680;-87
2021/04/16 06:00:14;;;;;;;13.65;8.85;;;;;;;8.23;91.01;99577.51;1713051;83;21654;-85
2021/04/16 06:02:42;;;;;;;10.80;7.28;;;;;;;8.26;90.76;99584.83;1687220;83;21197;-85
2021/04/16 06:05:13;;;;;;;11.85;9.10;;;;;;;8.26;90.58;99577.38;1709375;83;21816;-85
2021/04/16 06:07:41;;;;;;;13.83;9.20;;;;;;;8.27;90.26;99581.73;1703195;83;21250;-85
2021/04/16 06:10:12;;;;;;;12.63;8.33;;;;;;;8.26;90.32;99580.89;1677892;85;21230;-85
2021/04/16 06:12:40;;;;;;;17.40;9.10;;;;;;;8.28;90.38;99580.38;1689288;83;21244;-85
2021/04/16 06:15:12;;;;;;;17.65;9.18;;;;;;;8.32;90.49;99583.73;1686061;83;21742;-85
2021/04/16 06:17:40;;;;;;;11.70;7.85;;;;;;;8.36;90.56;99581.41;1686421;85;21483;-86
2021/04/16 06:20:09;;;;;;;16.77;10.63;;;;;;;8.40;90.56;99585.66;1686585;85;21638;-83
2021/04/16 06:22:37;;;;;;;17.17;11.85;;;;;;;8.42;90.49;99578.59;1688166;83;21206;-87
2021/04/16 06:25:09;;;;;;;16.48;9.70;;;;;;;8.45;90.43;99588.97;1692367;83;21131;-83
2021/04/16 06:27:38;;;;;;;14.68;9.70;;;;;;;8.50;90.22;99586.17;1712431;83;21163;-85
2021/04/16 06:30:07;;;;;;;14.13;9.60;;;;;;;8.51;90.07;99582.63;1714455;82;21334;-86
2021/04/16 06:32:38;;;;;;;14.28;9.30;;;;;;;8.53;90.20;99592.14;1710239;82;21238;-87
2021/04/16 06:38:00;;;;;;;18.12;10.80;;;;;;;8.58;89.98;99592.86;1804669;79;28246;-86
2021/04/16 06:40:28;;;;;;;18.57;10.35;;;;;;;8.53;90.07;99593.45;1721768;83;21682;-86
2021/04/16 06:42:56;;;;;;;17.20;10.15;;;;;;;8.58;90.12;99598.53;1712161;83;21759;-87
2021/04/16 06:45:31;;;;;;;13.65;8.60;;;;;;;8.58;90.13;99592.86;1719178;83;21198;-87
2021/04/16 06:48:06;;;;;;;13.55;9.00;;;;;;;8.60;90.01;99593.66;1739856;81;21324;-85
2021/04/16 06:50:37;;;;;;;14.03;9.83;;;;;;;8.58;90.03;99600.73;1711819;83;21165;-83
2021/04/16 06:53:25;;;;;;;14.33;10.88;;;;;;;8.57;90.06;99595.06;1718262;82;21213;-84
2021/04/16 06:56:03;;;;;;;18.87;12.70;;;;;;;8.57;90.07;99599.47;1707789;82;21500;-85
2021/04/16 06:59:00;;;;;;;16.93;11.22;;;;;;;8.54;89.87;99607.00;1701723;82;21186;-86
2021/04/16 07:02:00;;;;;;;18.73;10.43;;;;;;;8.54;90.05;99608.77;1690759;82;21163;-86
2021/04/16 07:04:41;;;;;;;13.60;9.18;;;;;;;8.51;89.83;99608.44;1692505;84;21159;-86
2021/04/16 07:07:35;;;;;;;17.27;9.98;;;;;;;8.46;89.77;99608.19;1693447;82;21178;-87
2021/04/16 07:10:17;;;;;;;15.93;10.82;;;;;;;8.45;89.94;99609.96;1698175;84;21393;-85
2021/04/16 07:12:45;;;;;;;15.13;9.70;;;;;;;8.42;90.15;99611.83;1698862;82;21193;-85
2021/04/16 07:15:25;;;;;;;15.43;10.00;;;;;;;8.39;90.24;99608.37;1695356;84;21171;-87
2021/04/16 07:18:06;;;;;;;12.53;8.85;;;;;;;8.45;90.55;99615.21;1878444;74;28623;-86
2021/04/16 07:20:35;;;;;;;15.03;9.98;;;;;;;8.42;90.51;99615.33;1832849;76;21179;-83
2021/04/16 07:23:03;;;;;;;13.25;8.20;;;;;;;8.44;90.54;99613.48;1850461;76;21174;-84
2021/04/16 07:25:45;;;;;;;16.45;8.78;;;;;;;8.48;90.46;99615.09;1843262;76;21162;-83
2021/04/16 07:28:33;;;;;;;18.27;9.15;;;;;;;8.50;90.51;99615.89;1833165;76;21565;-85
2021/04/16 07:31:29;;;;;;;16.40;9.90;;;;;;;8.53;90.39;99621.02;1808720;77;21162;-85
2021/04/16 07:34:00;;;;;;;16.42;8.28;;;;;;;8.55;90.29;99617.88;1827219;77;21147;-86
2021/04/16 07:36:37;;;;;;;12.05;8.28;;;;;;;8.60;90.36;99622.53;1820280;78;21368;-86
2021/04/16 07:39:18;;;;;;;15.90;7.08;;;;;;;8.64;90.17;99617.16;1828895;77;21038;-87
2021/04/16 07:41:55;;;;;;;16.90;7.45;;;;;;;8.67;90.07;99627.06;1823813;77;21119;-86
2021/04/16 07:44:35;;;;;;;9.50;6.80;;;;;;;8.69;89.96;99623.08;1823577;77;21601;-86
2021/04/16 07:47:16;;;;;;;7.97;6.03;;;;;;;8.69;89.68;99623.08;1759150;80;21658;-85
2021/04/16 07:50:07;;;;;;;10.82;6.28;;;;;;;8.70;89.89;99630.06;1768263;79;21211;-85
2021/04/16 07:52:43;;;;;;;8.60;5.92;;;;;;;8.70;90.05;99627.44;1759367;80;21745;-84
2021/04/16 07:55:28;;;;;;;11.20;6.85;;;;;;;8.71;90.13;99631.77;1754794;81;21207;-85
2021/04/16 07:58:18;;;;;;;9.60;6.95;;;;;;;8.71;89.92;99629.14;1796911;79;21141;-85
2021/04/16 08:00:46;;;;;;;9.35;7.10;;;;;;;8.69;89.98;99630.95;1786954;79;21675;-85
2021/04/16 08:03:21;;;;;;;8.23;5.25;;;;;;;8.70;90.21;99637.94;1783443;79;21339;-86
2021/04/16 08:05:53;;;;;;;8.48;5.55;;;;;;;8.70;90.32;99637.47;1767663;80;21167;-85
2021/04/16 08:08:27;;;;;;;;;;;;;;;8.67;89.76;99639.34;1785663;79;21117;-85
2021/04/16 08:11:09;;;;;;;10.95;7.00;;;;;;;8.64;89.92;99632.91;1786069;79;20512;-85
2021/04/16 08:13:47;;;;;;;11.33;5.78;;;;;;;8.60;89.85;99635.66;1785959;79;21192;-86
2021/04/16 08:16:25;;;;;;;8.43;5.10;;;;;;;8.57;89.96;99639.69;1785418;79;21360;-84
2021/04/16 08:19:21;;;;;;;10.18;6.47;;;;;;;8.56;90.12;99634.52;1791786;78;21226;-85
2021/04/16 08:22:12;;;;;;;9.45;6.37;;;;;;;8.58;90.41;99636.16;1780145;78;21209;-85
2021/04/16 08:24:54;;;;;;;11.10;6.25;;;;;;;8.61;90.72;99634.73;1795958;78;21166;-84
2021/04/16 08:27:40;;;;;;;12.40;6.58;;;;;;;8.67;90.67;99643.28;1791625;78;21179;-85
2021/04/16 08:30:22;;;;;;;10.08;6.33;;;;;;;8.68;90.62;99639.30;1801397;78;21621;-85
2021/04/16 08:33:20;;;;;;;12.10;7.47;;;;;;;8.67;90.20;99632.31;1798065;78;21126;-85
2021/04/16 08:35:57;;;;;;;10.15;6.97;;;;;;;8.69;90.55;99637.52;1799857;78;21159;-86
2021/04/16 08:38:30;;;;;;;11.68;7.35;;;;;;;8.77;90.68;99635.48;1792462;78;21166;-84
2021/04/16 08:41:01;;;;;;;7.78;5.65;;;;;;;8.82;90.49;99637.47;1782234;76;21249;-73
2021/04/16 08:43:46;;;;;;;;;;;;;;;8.86;90.11;99636.88;1741422;81;21374;-72
2021/04/16 08:46:32;;;;;;;16.00;8.00;;;;;;;8.88;89.94;99640.30;1732379;81;20283;-73
2021/04/16 08:49:13;;;;;;;9.53;4.72;;;;;;;8.89;90.16;99636.32;1738243;82;21169;-72
2021/04/16 08:51:44;;;;;;;11.80;5.62;;;;;;;8.94;89.93;99640.94;1738249;81;21199;-73
2021/04/16 08:54:31;;;;;;;8.23;5.33;;;;;;;8.96;89.67;99645.67;1697155;84;21205;-74
2021/04/16 09:19:56;;;;;;;11.55;6.95;;;;;;;9.01;88.97;99653.38;1696476;79;21491;-73
2021/04/16 09:22:34;;;;;;;11.03;6.53;;;;;;;8.99;88.77;99653.89;1733462;81;21502;-77
2021/04/16 09:25:43;;;;;;;7.45;5.87;;;;;;;8.98;88.99;99650.87;1839888;76;28254;-78
2021/04/16 09:28:28;;;;;;;8.75;5.90;;;;;;;8.95;89.39;99649.23;1811278;78;21664;-77
2021/04/16 09:31:03;;;;;;;7.95;5.33;;;;;;;8.96;89.37;99653.55;1790967;79;21220;-77
2021/04/16 09:33:43;;;;;;;9.23;5.80;;;;;;;8.96;89.42;99650.92;1802095;79;21594;-77
2021/04/16 09:36:30;;;;;;;12.40;5.55;;;;;;;9.00;89.73;99652.53;1807640;79;21170;-77
2021/04/16 09:39:17;;;;;;;7.75;4.08;;;;;;;9.05;89.81;99650.19;1797352;79;20980;-76
2021/04/16 09:41:46;;;;;;;6.75;5.28;;;;;;;9.11;90.00;99652.13;1784126;79;21614;-77
2021/04/16 09:44:31;;;;;;;8.18;4.70;;;;;;;9.18;89.62;99659.31;1815723;79;22753;-77
2021/04/16 09:47:03;;;;;;;7.58;4.97;;;;;;;9.23;89.67;99658.67;1814803;78;21092;-77
2021/04/16 09:49:38;;;;;;;5.75;4.58;;;;;;;9.32;89.22;99660.09;1830312;77;21146;-76
2021/04/16 09:52:33;;;;;;;8.30;5.28;;;;;;;9.40;89.16;99657.53;1809016;78;21597;-76
2021/04/16 09:55:22;;;;;;;7.45;4.80;;;;;;;9.51;88.77;99658.89;1744204;82;21585;-77
2021/04/16 09:57:50;;;;;;;7.00;5.12;;;;;;;9.60;88.75;99653.27;1748857;81;21325;-76
2021/04/16 10:00:42;;;;;;;9.70;4.45;;;;;;;9.69;88.63;99659.47;1746164;82;21311;-81
2021/04/16 10:03:41;;;;;;;7.25;4.58;;;;;;;9.74;88.51;99656.18;1742727;81;21119;-80
2021/04/16 10:06:38;;;;;;;6.42;3.60;;;;;;;9.81;88.44;99655.47;1800405;79;21720;-80
2021/04/16 10:09:25;;;;;;;6.75;3.98;;;;;;;9.92;88.00;99649.77;1775235;79;21106;-79
2021/04/16 10:12:16;;;;;;;5.45;4.55;;;;;;;10.01;87.85;99654.65;1815470;79;22021;-79
2021/04/16 10:14:46;;;;;;;6.15;4.35;;;;;;;10.12;87.31;99651.54;1800568;79;21151;-80
2021/04/16 10:17:21;;;;;;;6.83;4.67;;;;;;;10.20;86.74;99654.25;1793573;79;21175;-79
2021/04/16 10:20:14;;;;;;;5.47;4.17;;;;;;;10.31;86.67;99657.77;1756296;80;22248;-79
2021/04/16 10:22:41;;;;;;;10.40;5.37;;;;;;;10.44;86.02;99647.54;1755800;80;21190;-80
2021/04/16 12:38:47;;;;;;;10.58;8.60;;;;;;;12.60;76.79;99654.70;1790982;78;22282;-76
2021/04/16 12:41:18;;;;;;;8.70;6.40;;;;;;;12.52;76.72;99655.58;1800711;78;21607;-75
2021/04/16 12:43:47;;;;;;;6.62;5.60;;;;;;;12.48;75.79;99655.35;1805750;78;21242;-74
2021/04/16 12:46:19;;;;;;;8.03;6.37;;;;;;;12.38;75.56;99647.91;1800333;78;21163;-73
2021/04/16 12:48:47;;;;;;;8.10;6.30;;;;;;;12.39;75.33;99654.89;1803576;78;21613;-73
2021/04/16 12:51:16;;;;;;;9.10;7.60;;;;;;;12.32;75.01;99648.22;1800109;78;21171;-73
2021/04/16 12:53:44;;;;;;;10.65;7.47;;;;;;;12.27;75.05;99650.25;1787426;79;21628;-74
2021/04/16 12:56:17;;;;;;;16.07;11.38;;;;;;;12.22;75.32;99652.28;1763203;79;21361;-73
2021/04/16 12:58:45;;;;;;;8.68;6.40;;;;;;;12.14;75.82;99646.53;1806876;78;21178;-73
2021/04/16 13:01:29;;;;;;;9.10;7.22;;;;;;;12.04;75.92;99646.62;1803744;78;21142;-73
2021/04/16 13:03:58;;;;;;;10.85;7.03;;;;;;;12.01;76.65;99648.95;1808685;78;21589;-74
2021/04/16 13:06:35;;;;;;;7.95;6.47;;;;;;;11.94;76.56;99654.16;1789918;78;21178;-75
2021/04/16 13:09:06;;;;;;;10.15;7.42;;;;;;;11.83;75.75;99652.48;1811831;78;21837;-74
2021/04/16 13:11:35;;;;;;;10.30;7.67;;;;;;;11.70;76.37;99645.63;1817309;78;21505;-75
2021/04/16 13:14:03;;;;;;;9.58;7.60;;;;;;;11.61;77.12;99657.95;1805150;78;21142;-75
2021/04/16 13:16:32;;;;;;;9.65;6.95;;;;;;;11.54;77.07;99650.33;1814829;78;21153;-74
2021/04/16 13:19:03;;;;;;;10.95;7.50;;;;;;;11.54;77.72;99652.12;1793338;79;21236;-74
2021/04/16 13:21:35;;;;;;;;;;;;;;;11.45;77.92;99646.81;1793035;79;21215;-77
2021/04/16 13:24:05;;;;;;;13.28;8.53;;;;;;;11.41;77.53;99658.46;1801403;79;20276;-76
2021/04/16 13:26:33;;;;;;;12.47;8.58;;;;;;;11.32;77.69;99653.16;1766538;80;21595;-77
2021/04/16 13:29:01;;;;;;;12.13;7.60;;;;;;;11.27;78.11;99654.28;1751235;80;21166;-77
2021/04/16 13:31:33;;;;;;;9.70;6.12;;;;;;;11.27;78.40;99656.92;1774819;80;22096;-77
2021/04/16 13:34:02;;;;;;;11.45;8.30;;;;;;;11.25;78.87;99653.50;1774392;80;21369;-76
2021/04/16 13:36:31;;;;;;;12.00;7.55;;;;;;;11.21;79.20;99657.23;1784747;80;21142;-76
2021/04/16 13:39:00;;;;;;;9.30;5.72;;;;;;;11.16;79.57;99654.81;1779942;80;21199;-76
2021/04/16 13:41:28;;;;;;;15.38;7.75;;;;;;;11.11;79.41;99655.03;1783463;80;21134;-76
2021/04/16 13:43:58;;;;;;;12.10;6.85;;;;;;;11.02;79.48;99647.99;1780446;80;21645;-77
2021/04/16 13:46:30;;;;;;;7.33;5.72;;;;;;;11.04;79.63;99653.61;1785296;80;21814;-74
2021/04/16 13:48:59;;;;;;;6.97;6.03;;;;;;;11.05;79.90;99656.63;1773818;80;21673;-75
2021/04/16 13:51:28;;;;;;;9.08;6.78;;;;;;;11.02;79.35;99656.78;1743824;80;21796;-74
2021/04/16 13:53:56;;;;;;;8.78;7.20;;;;;;;10.99;79.57;99658.22;1784468;80;21694;-74
2021/04/16 13:56:24;;;;;;;10.30;7.12;;;;;;;10.99;79.98;99660.84;1778370;80;21202;-75
2021/04/16 13:58:52;;;;;;;8.73;6.92;;;;;;;10.96;80.33;99664.95;1779905;80;21387;-74
2021/04/16 14:01:20;;;;;;;7.95;6.30;;;;;;;10.95;80.70;99663.70;1787651;80;21155;-75
2021/04/16 14:03:50;;;;;;;6.55;5.53;;;;;;;10.92;80.86;99660.74;1785068;80;21179;-77
2021/04/16 14:06:21;;;;;;;9.33;6.80;;;;;;;10.93;81.09;99661.16;1785631;80;21185;-75
2021/04/16 14:09:00;;;;;;;6.87;5.17;;;;;;;10.94;81.87;99660.22;1785752;79;21170;-76
2021/04/16 14:11:33;;;;;;;6.28;4.60;;;;;;;10.92;81.87;99658.11;1777632;80;21631;-76
2021/04/16 14:14:07;;;;;;;13.30;6.70;;;;;;;10.89;82.20;99656.47;1783738;80;21159;-78
2021/04/16 14:16:40;;;;;;;8.33;5.65;;;;;;;10.90;82.05;99650.73;1779066;80;21171;-78
2021/04/16 14:19:17;;;;;;;5.33;4.20;;;;;;;10.88;82.08;99659.17;1787543;79;21709;-79
2021/04/16 14:21:48;;;;;;;6.25;4.60;;;;;;;10.87;82.08;99657.47;1776763;80;21197;-79
2021/04/16 14:24:17;;;;;;;8.20;5.53;;;;;;;10.83;81.97;99659.84;1782249;80;21415;-78
2021/04/16 14:26:47;;;;;;;8.10;5.72;;;;;;;10.82;82.24;99660.79;1793875;78;21205;-78
2021/04/16 14:29:20;;;;;;;7.15;5.17;;;;;;;10.80;81.87;99663.95;1795923;79;21152;-76
2021/04/16 14:31:49;;;;;;;7.62;5.65;;;;;;;10.77;82.43;99660.15;1775555;78;21143;-75
2021/04/16 14:34:19;;;;;;;7.45;4.85;;;;;;;10.75;82.55;99660.67;1750211;78;21209;-76
2021/04/16 14:36:48;;;;;;;9.00;6.50;;;;;;;10.73;82.71;99662.52;1759865;80;21201;-75
2021/04/16 14:39:18;;;;;;;6.17;3.95;;;;;;;10.69;82.82;99661.32;1790691;79;21214;-76